CheckWX is a tool to help pilots better visualize weather data.  It is not intended as a substitute for an official pre-flight weather briefing.

12:55:35 UTC

EKCH TAF
Copenhagen Kastrup Airport
Copenhagen, Denmark
TAF EKCH 161106Z 1612/1712 30012KT 9999 FEW020 BECMG 1618/1621 24005KT

Jun-16@
12:00 UTC

Jun-16 @ 12:00 UTC

Jun-16@
18:00 UTC

Jun-16 @ 18:00 UTC

TAF EKCH 161106Z 1612/1712 30012KT 9999 FEW020
Wind
  • 300° at 12 KTS
Cloud Levels
  • Few at 2,000' AGL

Jun-16@
18:00 UTC

Jun-16 @ 18:00 UTC

Jun-17@
12:00 UTC

Jun-17 @ 12:00 UTC

BECMG 1618/1621 24005KT

Becoming

Becoming Conditions expected by Sun, Jun 16, 2019 @ 21:00 UTC

Wind
  • 240° at 5 KTS
Cloud Levels
  • Few at 2,000' AGL